sensor_id;sensor_type;location;lat;lon;timestamp;P1;durP1;ratioP1;P2;durP2;ratioP2
50495;SDS011;38806;51.554;5.704;2023-05-29T00:01:07;17.95;;;7.82;;
50495;SDS011;38806;51.554;5.704;2023-05-29T00:03:09;15.47;;;7.53;;
50495;SDS011;38806;51.554;5.704;2023-05-29T00:05:16;16.30;;;8.73;;
50495;SDS011;38806;51.554;5.704;2023-05-29T00:07:16;19.30;;;7.20;;
50495;SDS011;38806;51.554;5.704;2023-05-29T00:09:19;22.38;;;8.15;;
50495;SDS011;38806;51.554;5.704;2023-05-29T00:11:20;19.58;;;7.50;;
50495;SDS011;38806;51.554;5.704;2023-05-29T00:13:20;14.95;;;5.90;;
50495;SDS011;38806;51.554;5.704;2023-05-29T00:15:20;14.73;;;6.78;;
50495;SDS011;38806;51.554;5.704;2023-05-29T00:17:21;13.77;;;6.43;;
50495;SDS011;38806;51.554;5.704;2023-05-29T00:19:24;14.40;;;6.68;;
50495;SDS011;38806;51.554;5.704;2023-05-29T00:21:31;16.08;;;6.45;;
50495;SDS011;38806;51.554;5.704;2023-05-29T00:23:37;17.67;;;6.63;;
50495;SDS011;38806;51.554;5.704;2023-05-29T00:25:38;23.75;;;6.63;;
50495;SDS011;38806;51.554;5.704;2023-05-29T00:27:40;13.93;;;5.95;;
50495;SDS011;38806;51.554;5.704;2023-05-29T00:29:41;17.05;;;6.35;;
50495;SDS011;38806;51.554;5.704;2023-05-29T00:31:47;20.30;;;6.13;;
50495;SDS011;38806;51.554;5.704;2023-05-29T00:33:48;15.02;;;5.82;;
50495;SDS011;38806;51.554;5.704;2023-05-29T00:35:48;15.05;;;4.78;;
50495;SDS011;38806;51.554;5.704;2023-05-29T00:37:49;15.32;;;6.50;;
50495;SDS011;38806;51.554;5.704;2023-05-29T00:39:49;18.27;;;6.97;;
50495;SDS011;38806;51.554;5.704;2023-05-29T00:41:50;15.30;;;5.88;;
50495;SDS011;38806;51.554;5.704;2023-05-29T00:43:51;18.35;;;5.05;;
50495;SDS011;38806;51.554;5.704;2023-05-29T00:45:51;17.05;;;5.63;;
50495;SDS011;38806;51.554;5.704;2023-05-29T00:47:52;11.82;;;4.65;;
50495;SDS011;38806;51.554;5.704;2023-05-29T00:49:52;14.30;;;4.75;;
50495;SDS011;38806;51.554;5.704;2023-05-29T00:51:53;21.33;;;6.25;;
50495;SDS011;38806;51.554;5.704;2023-05-29T00:53:55;15.10;;;5.20;;
50495;SDS011;38806;51.554;5.704;2023-05-29T00:55:57;18.08;;;5.25;;
50495;SDS011;38806;51.554;5.704;2023-05-29T00:57:58;12.65;;;5.45;;
50495;SDS011;38806;51.554;5.704;2023-05-29T00:59:58;16.88;;;5.47;;
50495;SDS011;38806;51.554;5.704;2023-05-29T01:01:59;15.80;;;4.63;;
50495;SDS011;38806;51.554;5.704;2023-05-29T01:04:06;14.38;;;4.47;;
50495;SDS011;38806;51.554;5.704;2023-05-29T01:06:09;15.80;;;5.07;;
50495;SDS011;38806;51.554;5.704;2023-05-29T01:08:13;12.25;;;3.95;;
50495;SDS011;38806;51.554;5.704;2023-05-29T01:10:13;19.50;;;5.68;;
50495;SDS011;38806;51.554;5.704;2023-05-29T01:14:17;20.25;;;4.72;;
50495;SDS011;38806;51.554;5.704;2023-05-29T01:16:33;14.57;;;5.30;;
50495;SDS011;38806;51.554;5.704;2023-05-29T01:27:42;16.35;;;5.55;;
50495;SDS011;38806;51.554;5.704;2023-05-29T01:29:47;14.63;;;4.47;;
50495;SDS011;38806;51.554;5.704;2023-05-29T01:31:50;12.70;;;4.25;;
50495;SDS011;38806;51.554;5.704;2023-05-29T01:34:00;21.83;;;4.15;;
50495;SDS011;38806;51.554;5.704;2023-05-29T01:36:08;9.88;;;3.85;;
50495;SDS011;38806;51.554;5.704;2023-05-29T01:38:17;18.33;;;4.72;;
50495;SDS011;38806;51.554;5.704;2023-05-29T01:40:17;15.80;;;5.22;;
50495;SDS011;38806;51.554;5.704;2023-05-29T01:42:23;17.13;;;4.63;;
50495;SDS011;38806;51.554;5.704;2023-05-29T01:44:24;14.43;;;4.63;;
50495;SDS011;38806;51.554;5.704;2023-05-29T01:46:25;10.75;;;4.05;;
50495;SDS011;38806;51.554;5.704;2023-05-29T01:48:26;16.70;;;4.50;;
50495;SDS011;38806;51.554;5.704;2023-05-29T01:50:29;14.82;;;5.00;;
50495;SDS011;38806;51.554;5.704;2023-05-29T01:52:31;17.60;;;5.85;;
50495;SDS011;38806;51.554;5.704;2023-05-29T01:54:37;13.77;;;5.88;;
50495;SDS011;38806;51.554;5.704;2023-05-29T01:56:41;22.50;;;7.13;;
50495;SDS011;38806;51.554;5.704;2023-05-29T01:58:44;12.23;;;4.03;;
50495;SDS011;38806;51.554;5.704;2023-05-29T02:00:45;11.77;;;4.03;;
50495;SDS011;38806;51.554;5.704;2023-05-29T02:02:46;13.82;;;4.93;;
50495;SDS011;38806;51.554;5.704;2023-05-29T02:04:46;15.57;;;5.57;;
50495;SDS011;38806;51.554;5.704;2023-05-29T02:06:46;16.88;;;4.32;;
50495;SDS011;38806;51.554;5.704;2023-05-29T02:08:47;13.30;;;4.03;;
50495;SDS011;38806;51.554;5.704;2023-05-29T02:10:47;15.48;;;4.90;;
50495;SDS011;38806;51.554;5.704;2023-05-29T02:12:47;17.70;;;5.72;;
50495;SDS011;38806;51.554;5.704;2023-05-29T02:14:48;17.08;;;4.72;;
50495;SDS011;38806;51.554;5.704;2023-05-29T02:16:48;13.68;;;4.32;;
50495;SDS011;38806;51.554;5.704;2023-05-29T02:18:49;16.48;;;4.30;;
50495;SDS011;38806;51.554;5.704;2023-05-29T02:20:49;15.82;;;4.20;;
50495;SDS011;38806;51.554;5.704;2023-05-29T02:22:49;11.23;;;5.20;;
50495;SDS011;38806;51.554;5.704;2023-05-29T02:24:50;11.45;;;3.10;;
50495;SDS011;38806;51.554;5.704;2023-05-29T02:26:50;16.63;;;4.57;;
50495;SDS011;38806;51.554;5.704;2023-05-29T02:28:57;15.73;;;4.57;;
50495;SDS011;38806;51.554;5.704;2023-05-29T02:30:58;16.42;;;4.78;;
50495;SDS011;38806;51.554;5.704;2023-05-29T02:33:04;24.95;;;5.50;;
50495;SDS011;38806;51.554;5.704;2023-05-29T02:35:15;18.42;;;4.82;;
50495;SDS011;38806;51.554;5.704;2023-05-29T02:37:20;15.85;;;6.07;;
50495;SDS011;38806;51.554;5.704;2023-05-29T02:39:26;21.17;;;5.25;;
50495;SDS011;38806;51.554;5.704;2023-05-29T02:41:29;13.10;;;4.55;;
50495;SDS011;38806;51.554;5.704;2023-05-29T02:43:35;20.92;;;6.18;;
50495;SDS011;38806;51.554;5.704;2023-05-29T02:45:35;13.77;;;4.78;;
50495;SDS011;38806;51.554;5.704;2023-05-29T02:47:36;11.35;;;4.07;;
50495;SDS011;38806;51.554;5.704;2023-05-29T02:49:36;22.20;;;4.60;;
50495;SDS011;38806;51.554;5.704;2023-05-29T02:51:36;15.82;;;4.90;;
50495;SDS011;38806;51.554;5.704;2023-05-29T02:53:37;15.88;;;5.97;;
50495;SDS011;38806;51.554;5.704;2023-05-29T02:55:37;28.25;;;6.22;;
50495;SDS011;38806;51.554;5.704;2023-05-29T02:57:37;15.27;;;4.72;;
50495;SDS011;38806;51.554;5.704;2023-05-29T02:59:38;17.00;;;5.28;;
50495;SDS011;38806;51.554;5.704;2023-05-29T03:01:38;18.20;;;5.82;;
50495;SDS011;38806;51.554;5.704;2023-05-29T03:03:38;15.10;;;5.82;;
50495;SDS011;38806;51.554;5.704;2023-05-29T03:05:45;14.52;;;4.10;;
50495;SDS011;38806;51.554;5.704;2023-05-29T03:07:52;14.35;;;4.05;;
50495;SDS011;38806;51.554;5.704;2023-05-29T03:09:53;23.00;;;5.55;;
50495;SDS011;38806;51.554;5.704;2023-05-29T03:11:54;18.13;;;4.75;;
50495;SDS011;38806;51.554;5.704;2023-05-29T03:13:54;16.00;;;4.28;;
50495;SDS011;38806;51.554;5.704;2023-05-29T03:15:54;16.58;;;5.15;;
50495;SDS011;38806;51.554;5.704;2023-05-29T03:17:57;15.50;;;5.32;;
50495;SDS011;38806;51.554;5.704;2023-05-29T03:19:57;21.08;;;5.50;;
50495;SDS011;38806;51.554;5.704;2023-05-29T03:21:57;21.15;;;7.00;;
50495;SDS011;38806;51.554;5.704;2023-05-29T03:23:58;23.98;;;6.03;;
50495;SDS011;38806;51.554;5.704;2023-05-29T03:25:58;22.90;;;6.35;;
50495;SDS011;38806;51.554;5.704;2023-05-29T03:27:58;20.55;;;5.63;;
50495;SDS011;38806;51.554;5.704;2023-05-29T03:29:59;17.73;;;5.20;;
50495;SDS011;38806;51.554;5.704;2023-05-29T03:31:59;15.73;;;6.03;;
50495;SDS011;38806;51.554;5.704;2023-05-29T03:34:00;20.23;;;5.43;;
50495;SDS011;38806;51.554;5.704;2023-05-29T03:36:00;20.95;;;5.63;;
50495;SDS011;38806;51.554;5.704;2023-05-29T03:38:00;17.38;;;5.57;;
50495;SDS011;38806;51.554;5.704;2023-05-29T03:40:01;17.60;;;5.10;;
50495;SDS011;38806;51.554;5.704;2023-05-29T03:42:01;16.55;;;5.03;;
50495;SDS011;38806;51.554;5.704;2023-05-29T03:44:12;20.83;;;6.00;;
50495;SDS011;38806;51.554;5.704;2023-05-29T03:46:12;25.63;;;6.75;;
50495;SDS011;38806;51.554;5.704;2023-05-29T03:48:13;24.13;;;5.45;;
50495;SDS011;38806;51.554;5.704;2023-05-29T03:50:14;12.95;;;4.50;;
50495;SDS011;38806;51.554;5.704;2023-05-29T03:52:18;17.55;;;5.78;;
50495;SDS011;38806;51.554;5.704;2023-05-29T03:54:24;22.27;;;5.45;;
50495;SDS011;38806;51.554;5.704;2023-05-29T03:56:31;20.88;;;5.53;;
50495;SDS011;38806;51.554;5.704;2023-05-29T03:58:31;18.05;;;5.72;;
50495;SDS011;38806;51.554;5.704;2023-05-29T04:00:38;17.50;;;5.30;;
50495;SDS011;38806;51.554;5.704;2023-05-29T04:02:44;19.95;;;5.72;;
50495;SDS011;38806;51.554;5.704;2023-05-29T04:04:45;23.77;;;8.43;;
50495;SDS011;38806;51.554;5.704;2023-05-29T04:06:45;13.90;;;5.72;;
50495;SDS011;38806;51.554;5.704;2023-05-29T04:08:49;21.85;;;6.20;;
50495;SDS011;38806;51.554;5.704;2023-05-29T04:10:50;16.48;;;4.90;;
50495;SDS011;38806;51.554;5.704;2023-05-29T04:12:53;22.25;;;6.35;;
50495;SDS011;38806;51.554;5.704;2023-05-29T04:14:55;22.63;;;5.80;;
50495;SDS011;38806;51.554;5.704;2023-05-29T04:16:55;20.77;;;5.10;;
50495;SDS011;38806;51.554;5.704;2023-05-29T04:18:55;17.17;;;5.90;;
50495;SDS011;38806;51.554;5.704;2023-05-29T04:20:56;11.85;;;4.75;;
50495;SDS011;38806;51.554;5.704;2023-05-29T04:22:56;21.33;;;6.88;;
50495;SDS011;38806;51.554;5.704;2023-05-29T04:24:56;18.92;;;6.57;;
50495;SDS011;38806;51.554;5.704;2023-05-29T04:26:57;17.27;;;5.65;;
50495;SDS011;38806;51.554;5.704;2023-05-29T04:29:03;19.63;;;4.80;;
50495;SDS011;38806;51.554;5.704;2023-05-29T04:31:06;16.13;;;5.25;;
50495;SDS011;38806;51.554;5.704;2023-05-29T04:33:07;14.35;;;7.18;;
50495;SDS011;38806;51.554;5.704;2023-05-29T04:35:09;15.75;;;5.45;;
50495;SDS011;38806;51.554;5.704;2023-05-29T04:37:16;18.65;;;6.63;;
50495;SDS011;38806;51.554;5.704;2023-05-29T04:39:23;25.38;;;5.32;;
50495;SDS011;38806;51.554;5.704;2023-05-29T04:41:27;17.88;;;5.35;;
50495;SDS011;38806;51.554;5.704;2023-05-29T04:43:37;22.48;;;5.68;;
50495;SDS011;38806;51.554;5.704;2023-05-29T04:45:37;14.90;;;5.30;;
50495;SDS011;38806;51.554;5.704;2023-05-29T04:47:38;15.00;;;4.57;;
50495;SDS011;38806;51.554;5.704;2023-05-29T04:49:48;14.43;;;5.70;;
50495;SDS011;38806;51.554;5.704;2023-05-29T04:51:49;21.20;;;6.30;;
50495;SDS011;38806;51.554;5.704;2023-05-29T04:53:52;22.17;;;6.80;;
50495;SDS011;38806;51.554;5.704;2023-05-29T04:55:53;13.60;;;4.65;;
50495;SDS011;38806;51.554;5.704;2023-05-29T04:57:59;16.05;;;4.93;;
50495;SDS011;38806;51.554;5.704;2023-05-29T05:00:00;21.85;;;7.72;;
50495;SDS011;38806;51.554;5.704;2023-05-29T05:02:01;20.80;;;5.22;;
50495;SDS011;38806;51.554;5.704;2023-05-29T05:04:01;15.80;;;4.93;;
50495;SDS011;38806;51.554;5.704;2023-05-29T05:06:14;17.65;;;5.63;;
50495;SDS011;38806;51.554;5.704;2023-05-29T05:08:22;26.05;;;6.25;;
50495;SDS011;38806;51.554;5.704;2023-05-29T05:10:23;24.25;;;5.95;;
50495;SDS011;38806;51.554;5.704;2023-05-29T05:12:23;17.73;;;5.53;;
50495;SDS011;38806;51.554;5.704;2023-05-29T05:14:23;19.15;;;6.72;;
50495;SDS011;38806;51.554;5.704;2023-05-29T05:16:24;17.80;;;6.15;;
50495;SDS011;38806;51.554;5.704;2023-05-29T05:18:25;20.13;;;5.05;;
50495;SDS011;38806;51.554;5.704;2023-05-29T05:20:25;28.77;;;6.43;;
50495;SDS011;38806;51.554;5.704;2023-05-29T05:22:31;14.10;;;6.07;;
50495;SDS011;38806;51.554;5.704;2023-05-29T05:24:37;15.90;;;5.82;;
50495;SDS011;38806;51.554;5.704;2023-05-29T05:26:44;13.50;;;6.95;;
50495;SDS011;38806;51.554;5.704;2023-05-29T05:28:44;20.80;;;5.95;;
50495;SDS011;38806;51.554;5.704;2023-05-29T05:30:45;23.35;;;6.10;;
50495;SDS011;38806;51.554;5.704;2023-05-29T05:32:51;19.77;;;5.78;;
50495;SDS011;38806;51.554;5.704;2023-05-29T05:34:51;22.13;;;4.80;;
50495;SDS011;38806;51.554;5.704;2023-05-29T05:36:51;18.42;;;5.20;;
50495;SDS011;38806;51.554;5.704;2023-05-29T05:38:52;17.60;;;4.00;;
50495;SDS011;38806;51.554;5.704;2023-05-29T05:40:52;18.80;;;5.38;;
50495;SDS011;38806;51.554;5.704;2023-05-29T05:42:52;19.70;;;4.47;;
50495;SDS011;38806;51.554;5.704;2023-05-29T05:44:53;13.98;;;6.43;;
50495;SDS011;38806;51.554;5.704;2023-05-29T05:46:53;17.10;;;4.68;;
50495;SDS011;38806;51.554;5.704;2023-05-29T05:48:54;15.65;;;5.40;;
50495;SDS011;38806;51.554;5.704;2023-05-29T05:50:57;16.83;;;6.10;;
50495;SDS011;38806;51.554;5.704;2023-05-29T05:53:04;21.00;;;6.20;;
50495;SDS011;38806;51.554;5.704;2023-05-29T05:55:07;23.40;;;5.85;;
50495;SDS011;38806;51.554;5.704;2023-05-29T05:57:07;19.83;;;6.10;;
50495;SDS011;38806;51.554;5.704;2023-05-29T05:59:08;15.98;;;5.32;;
50495;SDS011;38806;51.554;5.704;2023-05-29T06:01:14;19.42;;;4.57;;
50495;SDS011;38806;51.554;5.704;2023-05-29T06:03:21;14.60;;;5.18;;
50495;SDS011;38806;51.554;5.704;2023-05-29T06:05:27;12.73;;;5.03;;
50495;SDS011;38806;51.554;5.704;2023-05-29T06:07:33;20.52;;;6.65;;
50495;SDS011;38806;51.554;5.704;2023-05-29T06:09:36;16.00;;;6.15;;
50495;SDS011;38806;51.554;5.704;2023-05-29T06:11:37;17.88;;;6.47;;
50495;SDS011;38806;51.554;5.704;2023-05-29T06:13:37;17.65;;;4.82;;
50495;SDS011;38806;51.554;5.704;2023-05-29T06:15:38;12.57;;;4.35;;
50495;SDS011;38806;51.554;5.704;2023-05-29T06:17:38;28.90;;;7.18;;
50495;SDS011;38806;51.554;5.704;2023-05-29T06:19:39;21.05;;;6.95;;
50495;SDS011;38806;51.554;5.704;2023-05-29T06:21:40;15.50;;;5.07;;
50495;SDS011;38806;51.554;5.704;2023-05-29T06:23:41;22.17;;;5.15;;
50495;SDS011;38806;51.554;5.704;2023-05-29T06:25:41;23.08;;;5.47;;
50495;SDS011;38806;51.554;5.704;2023-05-29T06:27:48;18.38;;;6.47;;
50495;SDS011;38806;51.554;5.704;2023-05-29T06:29:49;16.33;;;5.25;;
50495;SDS011;38806;51.554;5.704;2023-05-29T06:31:49;19.33;;;5.35;;
50495;SDS011;38806;51.554;5.704;2023-05-29T06:33:49;15.18;;;4.10;;
50495;SDS011;38806;51.554;5.704;2023-05-29T06:35:50;16.27;;;4.15;;
50495;SDS011;38806;51.554;5.704;2023-05-29T06:37:51;13.23;;;4.60;;
50495;SDS011;38806;51.554;5.704;2023-05-29T06:39:51;14.35;;;4.53;;
50495;SDS011;38806;51.554;5.704;2023-05-29T06:41:51;23.95;;;5.65;;
50495;SDS011;38806;51.554;5.704;2023-05-29T06:43:52;13.50;;;4.13;;
50495;SDS011;38806;51.554;5.704;2023-05-29T06:45:52;17.10;;;4.20;;
50495;SDS011;38806;51.554;5.704;2023-05-29T06:47:52;23.10;;;6.20;;
50495;SDS011;38806;51.554;5.704;2023-05-29T06:49:53;15.20;;;4.60;;
50495;SDS011;38806;51.554;5.704;2023-05-29T06:51:53;13.07;;;4.85;;
50495;SDS011;38806;51.554;5.704;2023-05-29T06:53:53;10.25;;;4.25;;
50495;SDS011;38806;51.554;5.704;2023-05-29T06:55:53;12.63;;;4.63;;
50495;SDS011;38806;51.554;5.704;2023-05-29T06:57:54;22.35;;;4.82;;
50495;SDS011;38806;51.554;5.704;2023-05-29T06:59:54;12.18;;;3.33;;
50495;SDS011;38806;51.554;5.704;2023-05-29T07:01:55;14.18;;;3.88;;
50495;SDS011;38806;51.554;5.704;2023-05-29T07:04:02;12.05;;;3.75;;
50495;SDS011;38806;51.554;5.704;2023-05-29T07:06:05;13.10;;;4.18;;
50495;SDS011;38806;51.554;5.704;2023-05-29T07:08:06;16.20;;;3.97;;
50495;SDS011;38806;51.554;5.704;2023-05-29T07:10:07;15.82;;;5.18;;
50495;SDS011;38806;51.554;5.704;2023-05-29T07:12:07;21.25;;;4.47;;
50495;SDS011;38806;51.554;5.704;2023-05-29T07:14:14;17.85;;;4.00;;
50495;SDS011;38806;51.554;5.704;2023-05-29T07:16:14;15.90;;;4.60;;
50495;SDS011;38806;51.554;5.704;2023-05-29T07:18:21;12.77;;;3.55;;
50495;SDS011;38806;51.554;5.704;2023-05-29T07:20:27;16.48;;;4.50;;
50495;SDS011;38806;51.554;5.704;2023-05-29T07:22:28;17.45;;;4.95;;
50495;SDS011;38806;51.554;5.704;2023-05-29T07:24:31;21.73;;;3.90;;
50495;SDS011;38806;51.554;5.704;2023-05-29T07:26:31;14.73;;;4.53;;
50495;SDS011;38806;51.554;5.704;2023-05-29T07:28:32;10.90;;;3.63;;
50495;SDS011;38806;51.554;5.704;2023-05-29T07:30:35;17.77;;;4.00;;
50495;SDS011;38806;51.554;5.704;2023-05-29T07:32:35;10.93;;;3.33;;
50495;SDS011;38806;51.554;5.704;2023-05-29T07:34:36;12.10;;;4.05;;
50495;SDS011;38806;51.554;5.704;2023-05-29T07:39:01;12.18;;;3.28;;
50495;SDS011;38806;51.554;5.704;2023-05-29T07:41:02;11.57;;;3.55;;
50495;SDS011;38806;51.554;5.704;2023-05-29T07:43:08;11.60;;;2.90;;
50495;SDS011;38806;51.554;5.704;2023-05-29T07:45:11;11.25;;;4.75;;
50495;SDS011;38806;51.554;5.704;2023-05-29T07:47:15;15.73;;;3.58;;
50495;SDS011;38806;51.554;5.704;2023-05-29T07:49:21;17.52;;;3.28;;
50495;SDS011;38806;51.554;5.704;2023-05-29T07:51:21;10.73;;;3.13;;
50495;SDS011;38806;51.554;5.704;2023-05-29T07:53:22;9.13;;;3.92;;
50495;SDS011;38806;51.554;5.704;2023-05-29T07:55:25;12.13;;;3.28;;
50495;SDS011;38806;51.554;5.704;2023-05-29T07:57:25;13.98;;;3.55;;
50495;SDS011;38806;51.554;5.704;2023-05-29T07:59:26;9.63;;;3.45;;
50495;SDS011;38806;51.554;5.704;2023-05-29T08:01:32;8.55;;;3.42;;
50495;SDS011;38806;51.554;5.704;2023-05-29T08:03:36;8.82;;;3.28;;
50495;SDS011;38806;51.554;5.704;2023-05-29T08:05:36;14.32;;;6.13;;
50495;SDS011;38806;51.554;5.704;2023-05-29T08:07:37;12.18;;;4.43;;
50495;SDS011;38806;51.554;5.704;2023-05-29T08:09:37;13.45;;;5.63;;
50495;SDS011;38806;51.554;5.704;2023-05-29T08:11:37;12.68;;;3.58;;
50495;SDS011;38806;51.554;5.704;2023-05-29T08:13:38;13.52;;;3.72;;
50495;SDS011;38806;51.554;5.704;2023-05-29T08:15:38;9.95;;;3.22;;
50495;SDS011;38806;51.554;5.704;2023-05-29T08:17:39;11.65;;;3.97;;
50495;SDS011;38806;51.554;5.704;2023-05-29T08:19:39;14.18;;;4.82;;
50495;SDS011;38806;51.554;5.704;2023-05-29T08:21:39;16.63;;;4.13;;
50495;SDS011;38806;51.554;5.704;2023-05-29T08:23:40;9.07;;;3.70;;
50495;SDS011;38806;51.554;5.704;2023-05-29T08:25:41;13.95;;;3.92;;
50495;SDS011;38806;51.554;5.704;2023-05-29T08:27:42;15.82;;;3.95;;
50495;SDS011;38806;51.554;5.704;2023-05-29T08:29:42;10.13;;;3.38;;
50495;SDS011;38806;51.554;5.704;2023-05-29T08:31:42;15.02;;;3.78;;
50495;SDS011;38806;51.554;5.704;2023-05-29T08:33:43;12.85;;;4.00;;
50495;SDS011;38806;51.554;5.704;2023-05-29T08:35:43;9.45;;;3.40;;
50495;SDS011;38806;51.554;5.704;2023-05-29T08:37:47;9.13;;;3.42;;
50495;SDS011;38806;51.554;5.704;2023-05-29T08:39:47;7.78;;;3.15;;
50495;SDS011;38806;51.554;5.704;2023-05-29T08:42:21;16.42;;;3.83;;
50495;SDS011;38806;51.554;5.704;2023-05-29T08:44:24;11.43;;;5.33;;
50495;SDS011;38806;51.554;5.704;2023-05-29T08:46:35;11.07;;;3.53;;
50495;SDS011;38806;51.554;5.704;2023-05-29T08:48:43;15.65;;;3.60;;
50495;SDS011;38806;51.554;5.704;2023-05-29T08:50:50;13.07;;;4.07;;
50495;SDS011;38806;51.554;5.704;2023-05-29T08:52:52;11.00;;;3.42;;
50495;SDS011;38806;51.554;5.704;2023-05-29T08:54:53;9.63;;;3.05;;
50495;SDS011;38806;51.554;5.704;2023-05-29T08:56:54;9.85;;;3.60;;
50495;SDS011;38806;51.554;5.704;2023-05-29T08:58:54;10.32;;;4.15;;
50495;SDS011;38806;51.554;5.704;2023-05-29T09:00:55;6.50;;;3.05;;
50495;SDS011;38806;51.554;5.704;2023-05-29T09:02:56;9.75;;;4.07;;
50495;SDS011;38806;51.554;5.704;2023-05-29T09:04:56;8.30;;;3.03;;
50495;SDS011;38806;51.554;5.704;2023-05-29T09:06:58;13.90;;;3.67;;
50495;SDS011;38806;51.554;5.704;2023-05-29T09:09:01;9.40;;;2.78;;
50495;SDS011;38806;51.554;5.704;2023-05-29T09:11:04;10.93;;;3.50;;
50495;SDS011;38806;51.554;5.704;2023-05-29T09:13:05;11.73;;;4.20;;
50495;SDS011;38806;51.554;5.704;2023-05-29T09:15:26;11.13;;;3.30;;
50495;SDS011;38806;51.554;5.704;2023-05-29T09:17:35;9.93;;;3.20;;
50495;SDS011;38806;51.554;5.704;2023-05-29T09:19:36;11.40;;;3.42;;
50495;SDS011;38806;51.554;5.704;2023-05-29T09:21:38;12.50;;;3.67;;
50495;SDS011;38806;51.554;5.704;2023-05-29T09:23:38;10.90;;;3.90;;
50495;SDS011;38806;51.554;5.704;2023-05-29T09:25:44;5.43;;;2.38;;
50495;SDS011;38806;51.554;5.704;2023-05-29T09:30:00;8.18;;;2.65;;
50495;SDS011;38806;51.554;5.704;2023-05-29T09:32:01;11.13;;;2.85;;
50495;SDS011;38806;51.554;5.704;2023-05-29T09:34:08;8.93;;;3.45;;
50495;SDS011;38806;51.554;5.704;2023-05-29T09:36:10;11.25;;;3.20;;
50495;SDS011;38806;51.554;5.704;2023-05-29T09:38:19;6.93;;;3.25;;
50495;SDS011;38806;51.554;5.704;2023-05-29T09:40:19;9.27;;;3.08;;
50495;SDS011;38806;51.554;5.704;2023-05-29T09:42:20;11.95;;;3.10;;
50495;SDS011;38806;51.554;5.704;2023-05-29T09:44:20;15.27;;;4.05;;
50495;SDS011;38806;51.554;5.704;2023-05-29T09:46:21;12.82;;;3.13;;
50495;SDS011;38806;51.554;5.704;2023-05-29T09:48:33;11.38;;;3.60;;
50495;SDS011;38806;51.554;5.704;2023-05-29T09:50:38;7.05;;;3.10;;
50495;SDS011;38806;51.554;5.704;2023-05-29T09:52:39;10.93;;;4.10;;
50495;SDS011;38806;51.554;5.704;2023-05-29T09:54:39;8.93;;;3.80;;
50495;SDS011;38806;51.554;5.704;2023-05-29T09:56:40;9.13;;;2.78;;
50495;SDS011;38806;51.554;5.704;2023-05-29T09:58:42;10.50;;;3.40;;
50495;SDS011;38806;51.554;5.704;2023-05-29T10:00:49;11.77;;;3.33;;
50495;SDS011;38806;51.554;5.704;2023-05-29T10:02:51;10.85;;;3.85;;
50495;SDS011;38806;51.554;5.704;2023-05-29T10:04:51;10.88;;;2.92;;
50495;SDS011;38806;51.554;5.704;2023-05-29T10:06:52;13.82;;;2.80;;
50495;SDS011;38806;51.554;5.704;2023-05-29T10:08:56;11.13;;;3.10;;
50495;SDS011;38806;51.554;5.704;2023-05-29T10:11:06;13.48;;;4.25;;
50495;SDS011;38806;51.554;5.704;2023-05-29T10:13:15;13.70;;;3.97;;
50495;SDS011;38806;51.554;5.704;2023-05-29T10:15:17;11.73;;;4.33;;
50495;SDS011;38806;51.554;5.704;2023-05-29T10:17:28;8.43;;;2.90;;
50495;SDS011;38806;51.554;5.704;2023-05-29T10:19:36;10.25;;;2.35;;
50495;SDS011;38806;51.554;5.704;2023-05-29T10:21:37;11.85;;;2.92;;
50495;SDS011;38806;51.554;5.704;2023-05-29T10:23:37;12.02;;;3.85;;
50495;SDS011;38806;51.554;5.704;2023-05-29T10:25:38;11.77;;;2.92;;
50495;SDS011;38806;51.554;5.704;2023-05-29T10:27:45;10.93;;;3.53;;
50495;SDS011;38806;51.554;5.704;2023-05-29T10:29:48;8.50;;;3.42;;
50495;SDS011;38806;51.554;5.704;2023-05-29T10:36:17;10.00;;;3.35;;
50495;SDS011;38806;51.554;5.704;2023-05-29T10:38:19;8.02;;;3.78;;
50495;SDS011;38806;51.554;5.704;2023-05-29T10:40:26;10.93;;;3.20;;
50495;SDS011;38806;51.554;5.704;2023-05-29T10:44:39;9.52;;;3.03;;
50495;SDS011;38806;51.554;5.704;2023-05-29T10:48:51;11.75;;;3.30;;
50495;SDS011;38806;51.554;5.704;2023-05-29T10:51:04;11.68;;;3.10;;
50495;SDS011;38806;51.554;5.704;2023-05-29T10:53:06;7.50;;;2.60;;
50495;SDS011;38806;51.554;5.704;2023-05-29T10:55:09;8.05;;;2.80;;
50495;SDS011;38806;51.554;5.704;2023-05-29T10:57:13;9.25;;;3.03;;
50495;SDS011;38806;51.554;5.704;2023-05-29T10:59:14;7.75;;;2.45;;
50495;SDS011;38806;51.554;5.704;2023-05-29T11:01:21;10.75;;;2.45;;
50495;SDS011;38806;51.554;5.704;2023-05-29T11:03:31;12.18;;;2.97;;
50495;SDS011;38806;51.554;5.704;2023-05-29T11:05:31;13.15;;;3.47;;
50495;SDS011;38806;51.554;5.704;2023-05-29T11:09:52;5.35;;;2.58;;
50495;SDS011;38806;51.554;5.704;2023-05-29T11:14:21;5.72;;;2.28;;
50495;SDS011;38806;51.554;5.704;2023-05-29T11:18:31;12.55;;;3.45;;
50495;SDS011;38806;51.554;5.704;2023-05-29T11:20:49;6.03;;;2.70;;
50495;SDS011;38806;51.554;5.704;2023-05-29T11:25:03;9.15;;;2.80;;
50495;SDS011;38806;51.554;5.704;2023-05-29T11:27:05;5.88;;;2.30;;
50495;SDS011;38806;51.554;5.704;2023-05-29T11:29:08;10.25;;;3.15;;
50495;SDS011;38806;51.554;5.704;2023-05-29T11:31:15;6.95;;;2.58;;
50495;SDS011;38806;51.554;5.704;2023-05-29T11:33:23;8.65;;;3.17;;
50495;SDS011;38806;51.554;5.704;2023-05-29T11:35:36;8.70;;;3.42;;
50495;SDS011;38806;51.554;5.704;2023-05-29T11:37:38;9.43;;;3.58;;
50495;SDS011;38806;51.554;5.704;2023-05-29T11:39:39;10.40;;;2.75;;
50495;SDS011;38806;51.554;5.704;2023-05-29T11:41:42;7.78;;;2.83;;
50495;SDS011;38806;51.554;5.704;2023-05-29T11:46:19;9.80;;;2.97;;
50495;SDS011;38806;51.554;5.704;2023-05-29T11:48:20;10.63;;;3.30;;
50495;SDS011;38806;51.554;5.704;2023-05-29T11:50:33;9.35;;;3.00;;
50495;SDS011;38806;51.554;5.704;2023-05-29T11:52:46;8.15;;;2.65;;
50495;SDS011;38806;51.554;5.704;2023-05-29T11:54:49;6.88;;;2.47;;
50495;SDS011;38806;51.554;5.704;2023-05-29T11:56:49;7.45;;;3.15;;
50495;SDS011;38806;51.554;5.704;2023-05-29T11:59:01;16.02;;;3.10;;
50495;SDS011;38806;51.554;5.704;2023-05-29T12:01:17;7.43;;;2.05;;
50495;SDS011;38806;51.554;5.704;2023-05-29T12:03:25;6.80;;;2.17;;
50495;SDS011;38806;51.554;5.704;2023-05-29T12:07:55;7.65;;;2.60;;
50495;SDS011;38806;51.554;5.704;2023-05-29T12:12:16;7.88;;;2.83;;
50495;SDS011;38806;51.554;5.704;2023-05-29T12:14:23;8.82;;;3.17;;
50495;SDS011;38806;51.554;5.704;2023-05-29T12:16:46;10.65;;;3.25;;
50495;SDS011;38806;51.554;5.704;2023-05-29T12:18:49;9.30;;;2.72;;
50495;SDS011;38806;51.554;5.704;2023-05-29T12:20:49;10.13;;;3.40;;
50495;SDS011;38806;51.554;5.704;2023-05-29T12:22:50;9.48;;;3.42;;
50495;SDS011;38806;51.554;5.704;2023-05-29T12:24:51;5.78;;;2.13;;
50495;SDS011;38806;51.554;5.704;2023-05-29T12:26:51;6.28;;;2.85;;
50495;SDS011;38806;51.554;5.704;2023-05-29T12:28:52;6.40;;;2.38;;
50495;SDS011;38806;51.554;5.704;2023-05-29T12:30:57;9.30;;;3.80;;
50495;SDS011;38806;51.554;5.704;2023-05-29T12:33:04;7.00;;;2.75;;
50495;SDS011;38806;51.554;5.704;2023-05-29T12:37:20;10.02;;;2.80;;
50495;SDS011;38806;51.554;5.704;2023-05-29T12:39:25;6.80;;;2.83;;
50495;SDS011;38806;51.554;5.704;2023-05-29T12:41:34;8.30;;;3.55;;
50495;SDS011;38806;51.554;5.704;2023-05-29T12:43:35;10.23;;;3.28;;
50495;SDS011;38806;51.554;5.704;2023-05-29T12:45:36;10.63;;;3.45;;
50495;SDS011;38806;51.554;5.704;2023-05-29T12:47:44;10.02;;;2.53;;
50495;SDS011;38806;51.554;5.704;2023-05-29T12:49:45;9.68;;;3.53;;
50495;SDS011;38806;51.554;5.704;2023-05-29T12:51:46;6.18;;;2.50;;
50495;SDS011;38806;51.554;5.704;2023-05-29T12:53:46;7.05;;;2.72;;